Flight Track Log - Related Links

Times and Time Zones

All times are in EDT time to prevent confusion due to time zone crossing. See the AAL1862 flight status page for this flight to view local times or setup timezone preferences in your user account.

Time Position Orientation Groundspeed Altitude Reporting Facility
EDT Latitude Longitude Course Direction KTS MPH feet Rate Location/Type
Sun 08:44:58 AM 25.8047 -80.2511 338° Northwest 171 197 1,400  Level Miami Center
Sun 08:50:00 AM 26.3956 -80.5056 338° Northwest  Level FlightAware
Sun 08:50:41 AM 26.1245 -80.3370 322° Northwest 329 379 10,600  Level FlightAware (KEYW)
Sun 08:51:19 AM 26.1733 -80.3799 322° Northwest 360 414 11,100 1,040 Climbing FlightAware (KEYW)
Sun 08:51:56 AM 26.2240 -80.4235 322° Northwest 360 414 11,900 1,732 Climbing FlightAware (KEYW)
Sun 08:52:56 AM 26.3230 -80.4732 337° Northwest 391 450 13,900 1,828 Climbing FlightAware (KEYW)
Sun 08:54:04 AM 26.4386 -80.5280 337° Northwest 403 464 15,800 1,714 Climbing FlightAware (KEYW)
Sun 08:54:34 AM 26.4836 -80.5494 337° Northwest 402 463 16,700 1,463 Climbing FlightAware (RJTF)
Sun 08:54:45 AM 26.4911 -80.5530 337° Northwest 402 463 16,800 1,600 Climbing FlightAware (KEYW)
Sun 08:55:04 AM 26.5307 -80.5719 337° Northwest 407 468 17,500 1,370 Climbing FlightAware (RJTF)
Sun 08:57:27 AM 26.8078 -80.6800 342° North 438 504 20,500 1,291 Climbing FlightAware (KEYW)
Sun 08:57:56 AM 26.8657 -80.7014 342° North 440 506 21,200 1,154 Climbing FlightAware (KEYW)
Sun 08:58:19 AM 26.9008 -80.7145 342° North 443 510 21,500 1,059 Climbing FlightAware (RJTF)
Sun 09:01:03 AM 27.2358 -80.8395 342° North 460 529 24,500 972 Climbing FlightAware (KEYW)
Sun 09:04:11 AM 27.5885 -80.9720 341° North 472 543 27,200 1,064 Climbing FlightAware
Sun 09:04:26 AM 27.6465 -80.9938 342° North 463 533 28,100 1,149 Climbing FlightAware (KEYW)
Sun 09:09:14 AM 28.2345 -81.2169 342° North 451 519 33,000 457 Climbing FlightAware (KEYW)
Sun 09:15:09 AM 28.9098 -81.3703 355° North 453 521 33,000  Level FlightAware (KSFB)
Sun 09:17:36 AM 29.2290 -81.4011 355° North 455 524 33,000  Level FlightAware
Sun 09:18:56 AM 29.3936 -81.4172 355° North 445 512 33,000  Level Jacksonville Center
Sun 09:19:56 AM 29.5150 -81.4319 354° North 445 512 33,000 -50 Level Jacksonville Center
Sun 09:20:56 AM 29.6403 -81.4444 355° North 445 512 32,900  Descending Jacksonville Center
Sun 09:21:56 AM 29.7700 -81.4569 355° North 445 512 33,000 50 Climbing Jacksonville Center
Sun 09:22:56 AM 29.8975 -81.4694 355° North 450 518 33,000  Level Jacksonville Center
Sun 09:23:56 AM 30.0228 -81.4794 356° North 455 524 33,000  Level Jacksonville Center
Sun 09:24:56 AM 30.1503 -81.4922 355° North 455 524 33,000  Level Jacksonville Center
Sun 09:25:56 AM 30.2672 -81.5025 356° North 464 534 33,000  Level Jacksonville Center
Sun 09:26:56 AM 30.3947 -81.5031 360° North 459 528 33,000  Level Jacksonville Center
Sun 09:27:56 AM 30.5089 -81.4603 18° North 445 512 33,000  Level Jacksonville Center
Sun 09:28:56 AM 30.6236 -81.4272 14° North 433 498 33,000  Level Jacksonville Center
Sun 09:29:56 AM 30.7444 -81.4086 North 428 493 33,000  Level Jacksonville Center
Sun 09:30:56 AM 30.8611 -81.3922 North 428 493 33,000 -50 Level Jacksonville Center
Sun 09:31:56 AM 30.9819 -81.3756 North 428 493 32,900 -50 Descending Jacksonville Center
Sun 09:32:56 AM 31.1008 -81.3567 North 422 486 32,900 50 Level Jacksonville Center
Sun 09:33:56 AM 31.2217 -81.3403 North 427 491 33,000 50 Climbing Jacksonville Center
Sun 09:34:56 AM 31.3447 -81.3236 North 427 491 33,000 50 Level Jacksonville Center
Sun 09:35:56 AM 31.4614 -81.3044 North 427 491 33,100 50 Climbing Jacksonville Center
Sun 09:36:56 AM 31.5925 -81.2853 North 427 491 33,100 -50 Level Jacksonville Center
Sun 09:37:56 AM 31.6989 -81.2689 North 427 491 33,000 -50 Descending Jacksonville Center
Sun 09:38:56 AM 31.8281 -81.2494 North 427 491 33,000  Level Jacksonville Center
Sun 09:39:56 AM 31.9364 -81.2328 North 427 491 33,000  Level Jacksonville Center
Sun 09:40:56 AM 32.0572 -81.2133 North 433 498 33,000  Level Jacksonville Center
Sun 09:41:56 AM 32.1758 -81.1769 15° North 433 498 33,000  Level Jacksonville Center
Sun 09:42:56 AM 32.2833 -81.1111 27° Northeast 426 490 33,000  Level Jacksonville Center
Sun 09:43:56 AM 32.4014 -81.0325 29° Northeast 431 496 33,000  Level Jacksonville Center
Sun 09:44:56 AM 32.4942 -80.9689 30° Northeast 431 496 33,000  Level Jacksonville Center
Sun 09:45:56 AM 32.5997 -80.9003 29° Northeast 431 496 33,000  Level Jacksonville Center
Sun 09:46:56 AM 32.7031 -80.8311 29° Northeast 431 496 33,000  Level Jacksonville Center
Sun 09:47:56 AM 32.8144 -80.7569 29° Northeast 424 488 33,000 -450 Level Jacksonville Center
Sun 09:48:56 AM 32.9197 -80.6878 29° Northeast 424 488 32,100 -1,250 Descending Jacksonville Center
Sun 09:49:56 AM 33.0289 -80.6131 30° Northeast 430 495 30,500 -1,550 Descending Jacksonville Center
Sun 09:50:56 AM 33.1403 -80.5383 29° Northeast 442 509 29,000 -1,000 Descending Jacksonville Center
Sun 09:51:56 AM 33.2517 -80.4633 29° Northeast 447 514 28,500 -1,466 Descending Jacksonville Center
Sun 09:57:33 AM 33.8636 -80.0397 29° Northeast 20,600 -1,557 Descending FlightAware
Sun 10:02:32 AM 34.3889 -80.1839 338° Northwest 380 437 12,000 -1,712 Descending FlightAware
Sun 10:03:06 AM 34.4434 -80.2108 338° Northwest 380 437 11,100 -758 Descending FlightAware
Sun 10:04:07 AM 34.5442 -80.2609 338° Northwest 385 443 10,800 -117 Descending FlightAware
Sun 10:05:40 AM 34.6798 -80.3283 338° Northwest 298 343 10,800  Level FlightAware
Sun 10:06:52 AM 34.7535 -80.4029 314° West 291 335 10,800  Level FlightAware
Sun 10:07:58 AM 34.8216 -80.4877 314° West 327 376 10,800 106 Level FlightAware
Sun 10:08:45 AM 34.8653 -80.5453 314° West 341 392 11,000 59 Climbing Atlanta Center
Sun 10:09:40 AM 34.9236 -80.6189 314° West 335 386 10,900 -517 Descending Atlanta Center
Sun 10:10:41 AM 34.9864 -80.7025 313° West 329 379 10,000 -422 Descending Atlanta Center
Sun 10:11:48 AM 35.0619 -80.7933 315° West 326 375 10,000  Level Atlanta Center
Sun 10:12:43 AM 35.1397 -80.8156 347° North 320 368 10,000  Level Atlanta Center
Sun 10:13:50 AM 35.2122 -80.7950 13° North 254 292 10,000 -645 Level Atlanta Center
Sun 10:14:44 AM 35.2525 -80.7400 48° Northeast 220 253 8,700 -2,276 Descending Atlanta Center
Sun 10:15:46 AM 35.3011 -80.6822 44° Northeast 225 259 5,600 -2,203 Descending Atlanta Center
Sun 10:16:52 AM 35.3378 -80.7289 314° West 213 245 4,000 -945 Descending Atlanta Center
Sun 10:17:53 AM 35.3228 -80.7933 254° West 200 230 3,600 -672 Descending Atlanta Center
Sun 10:18:48 AM 35.2925 -80.8378 230° Southwest 185 213 2,700 -931 Descending Atlanta Center
Sun 10:19:49 AM 35.2625 -80.8794 229° Southwest 161 185 1,800 -787 Descending Atlanta Center
Sun 10:20:50 AM 35.2342 -80.9164 227° Southwest 139 160 1,100 -689 Descending Atlanta Center

Login

Don't have an account? Register now (free) for customized features, flight alerts, and more!